sensor_id;sensor_type;location;lat;lon;timestamp;P1;durP1;ratioP1;P2;durP2;ratioP2
78346;SDS011;67803;41.330;69.282;2023-08-06T00:02:18;14.15;;;7.03;;
78346;SDS011;67803;41.330;69.282;2023-08-06T00:04:48;19.08;;;7.28;;
78346;SDS011;67803;41.330;69.282;2023-08-06T00:07:18;16.10;;;7.18;;
78346;SDS011;67803;41.330;69.282;2023-08-06T00:09:49;17.58;;;7.07;;
78346;SDS011;67803;41.330;69.282;2023-08-06T00:12:19;17.52;;;6.63;;
78346;SDS011;67803;41.330;69.282;2023-08-06T00:14:50;14.05;;;7.65;;
78346;SDS011;67803;41.330;69.282;2023-08-06T00:17:21;14.27;;;6.43;;
78346;SDS011;67803;41.330;69.282;2023-08-06T00:19:52;17.17;;;6.97;;
78346;SDS011;67803;41.330;69.282;2023-08-06T00:22:23;12.88;;;5.82;;
78346;SDS011;67803;41.330;69.282;2023-08-06T00:24:53;18.05;;;6.75;;
78346;SDS011;67803;41.330;69.282;2023-08-06T00:27:27;17.45;;;6.40;;
78346;SDS011;67803;41.330;69.282;2023-08-06T00:29:58;15.30;;;6.25;;
78346;SDS011;67803;41.330;69.282;2023-08-06T00:32:28;15.00;;;6.28;;
78346;SDS011;67803;41.330;69.282;2023-08-06T00:34:59;19.60;;;6.82;;
78346;SDS011;67803;41.330;69.282;2023-08-06T00:37:29;13.35;;;7.00;;
78346;SDS011;67803;41.330;69.282;2023-08-06T00:40:00;12.10;;;5.88;;
78346;SDS011;67803;41.330;69.282;2023-08-06T00:42:30;14.90;;;6.90;;
78346;SDS011;67803;41.330;69.282;2023-08-06T00:45:01;13.18;;;6.88;;
78346;SDS011;67803;41.330;69.282;2023-08-06T00:47:31;14.15;;;6.53;;
78346;SDS011;67803;41.330;69.282;2023-08-06T00:50:02;17.27;;;6.93;;
78346;SDS011;67803;41.330;69.282;2023-08-06T00:52:33;15.40;;;6.70;;
78346;SDS011;67803;41.330;69.282;2023-08-06T00:55:03;13.13;;;6.47;;
78346;SDS011;67803;41.330;69.282;2023-08-06T00:57:34;14.57;;;6.63;;
78346;SDS011;67803;41.330;69.282;2023-08-06T01:00:04;17.83;;;7.10;;
78346;SDS011;67803;41.330;69.282;2023-08-06T01:02:35;14.88;;;7.25;;
78346;SDS011;67803;41.330;69.282;2023-08-06T01:05:06;15.55;;;6.82;;
78346;SDS011;67803;41.330;69.282;2023-08-06T01:15:38;20.90;;;8.13;;
78346;SDS011;67803;41.330;69.282;2023-08-06T01:18:11;15.38;;;8.35;;
78346;SDS011;67803;41.330;69.282;2023-08-06T01:20:42;17.58;;;8.57;;
78346;SDS011;67803;41.330;69.282;2023-08-06T01:23:12;16.70;;;8.68;;
78346;SDS011;67803;41.330;69.282;2023-08-06T01:25:49;20.05;;;8.65;;
78346;SDS011;67803;41.330;69.282;2023-08-06T01:30:57;18.63;;;8.88;;
78346;SDS011;67803;41.330;69.282;2023-08-06T01:33:29;19.42;;;8.73;;
78346;SDS011;67803;41.330;69.282;2023-08-06T01:36:01;21.45;;;10.18;;
78346;SDS011;67803;41.330;69.282;2023-08-06T01:38:32;21.33;;;9.70;;
78346;SDS011;67803;41.330;69.282;2023-08-06T01:41:03;18.35;;;9.57;;
78346;SDS011;67803;41.330;69.282;2023-08-06T01:43:33;21.50;;;9.45;;
78346;SDS011;67803;41.330;69.282;2023-08-06T01:46:03;21.52;;;9.23;;
78346;SDS011;67803;41.330;69.282;2023-08-06T01:48:34;20.63;;;10.15;;
78346;SDS011;67803;41.330;69.282;2023-08-06T01:51:04;19.73;;;10.05;;
78346;SDS011;67803;41.330;69.282;2023-08-06T01:53:35;18.08;;;9.30;;
78346;SDS011;67803;41.330;69.282;2023-08-06T01:56:06;19.33;;;9.80;;
78346;SDS011;67803;41.330;69.282;2023-08-06T01:58:36;22.70;;;9.55;;
78346;SDS011;67803;41.330;69.282;2023-08-06T02:01:07;21.35;;;10.02;;
78346;SDS011;67803;41.330;69.282;2023-08-06T02:03:37;22.40;;;10.57;;
78346;SDS011;67803;41.330;69.282;2023-08-06T02:06:08;19.33;;;9.20;;
78346;SDS011;67803;41.330;69.282;2023-08-06T02:08:38;16.98;;;9.18;;
78346;SDS011;67803;41.330;69.282;2023-08-06T02:11:09;19.15;;;9.43;;
78346;SDS011;67803;41.330;69.282;2023-08-06T02:13:40;21.83;;;8.98;;
78346;SDS011;67803;41.330;69.282;2023-08-06T02:16:10;19.85;;;8.60;;
78346;SDS011;67803;41.330;69.282;2023-08-06T02:18:41;20.33;;;8.93;;
78346;SDS011;67803;41.330;69.282;2023-08-06T02:21:11;20.05;;;9.25;;
78346;SDS011;67803;41.330;69.282;2023-08-06T02:23:41;22.55;;;9.00;;
78346;SDS011;67803;41.330;69.282;2023-08-06T02:26:12;20.88;;;8.70;;
78346;SDS011;67803;41.330;69.282;2023-08-06T02:28:42;19.23;;;7.90;;
78346;SDS011;67803;41.330;69.282;2023-08-06T02:31:13;25.40;;;9.38;;
78346;SDS011;67803;41.330;69.282;2023-08-06T02:33:43;22.40;;;8.63;;
78346;SDS011;67803;41.330;69.282;2023-08-06T02:36:14;18.85;;;8.38;;
78346;SDS011;67803;41.330;69.282;2023-08-06T02:38:44;17.15;;;7.70;;
78346;SDS011;67803;41.330;69.282;2023-08-06T02:41:15;17.88;;;8.38;;
78346;SDS011;67803;41.330;69.282;2023-08-06T02:43:45;18.83;;;7.53;;
78346;SDS011;67803;41.330;69.282;2023-08-06T02:46:15;14.07;;;8.18;;
78346;SDS011;67803;41.330;69.282;2023-08-06T02:48:46;22.23;;;8.20;;
78346;SDS011;67803;41.330;69.282;2023-08-06T02:51:16;18.33;;;7.95;;
78346;SDS011;67803;41.330;69.282;2023-08-06T02:53:47;16.27;;;8.48;;
78346;SDS011;67803;41.330;69.282;2023-08-06T02:56:18;15.25;;;8.32;;
78346;SDS011;67803;41.330;69.282;2023-08-06T02:58:48;19.70;;;8.10;;
78346;SDS011;67803;41.330;69.282;2023-08-06T03:01:18;17.60;;;8.65;;
78346;SDS011;67803;41.330;69.282;2023-08-06T03:03:49;22.33;;;9.45;;
78346;SDS011;67803;41.330;69.282;2023-08-06T03:06:19;21.98;;;8.75;;
78346;SDS011;67803;41.330;69.282;2023-08-06T03:08:50;20.83;;;9.40;;
78346;SDS011;67803;41.330;69.282;2023-08-06T03:11:20;19.85;;;9.50;;
78346;SDS011;67803;41.330;69.282;2023-08-06T03:13:51;20.27;;;9.43;;
78346;SDS011;67803;41.330;69.282;2023-08-06T03:16:21;18.23;;;8.82;;
78346;SDS011;67803;41.330;69.282;2023-08-06T03:18:52;22.92;;;9.48;;
78346;SDS011;67803;41.330;69.282;2023-08-06T03:21:22;21.95;;;9.40;;
78346;SDS011;67803;41.330;69.282;2023-08-06T03:23:52;17.58;;;7.82;;
78346;SDS011;67803;41.330;69.282;2023-08-06T03:26:23;20.10;;;9.73;;
78346;SDS011;67803;41.330;69.282;2023-08-06T03:28:53;18.88;;;8.80;;
78346;SDS011;67803;41.330;69.282;2023-08-06T03:31:24;18.42;;;9.30;;
78346;SDS011;67803;41.330;69.282;2023-08-06T03:33:54;16.15;;;8.65;;
78346;SDS011;67803;41.330;69.282;2023-08-06T03:36:25;19.90;;;8.88;;
78346;SDS011;67803;41.330;69.282;2023-08-06T03:38:55;20.15;;;9.57;;
78346;SDS011;67803;41.330;69.282;2023-08-06T03:41:25;27.02;;;9.40;;
78346;SDS011;67803;41.330;69.282;2023-08-06T03:43:56;27.27;;;10.48;;
78346;SDS011;67803;41.330;69.282;2023-08-06T03:46:26;22.20;;;10.07;;
78346;SDS011;67803;41.330;69.282;2023-08-06T03:48:57;22.15;;;9.23;;
78346;SDS011;67803;41.330;69.282;2023-08-06T03:51:27;19.73;;;9.63;;
78346;SDS011;67803;41.330;69.282;2023-08-06T03:53:58;21.00;;;11.23;;
78346;SDS011;67803;41.330;69.282;2023-08-06T03:56:28;18.80;;;9.48;;
78346;SDS011;67803;41.330;69.282;2023-08-06T03:58:58;18.85;;;10.05;;
78346;SDS011;67803;41.330;69.282;2023-08-06T04:01:29;20.10;;;10.50;;
78346;SDS011;67803;41.330;69.282;2023-08-06T04:03:59;19.83;;;9.10;;
78346;SDS011;67803;41.330;69.282;2023-08-06T04:06:30;22.13;;;8.95;;
78346;SDS011;67803;41.330;69.282;2023-08-06T04:09:00;22.65;;;10.18;;
78346;SDS011;67803;41.330;69.282;2023-08-06T04:11:31;21.17;;;9.43;;
78346;SDS011;67803;41.330;69.282;2023-08-06T04:14:01;22.33;;;10.57;;
78346;SDS011;67803;41.330;69.282;2023-08-06T04:16:31;25.98;;;11.85;;
78346;SDS011;67803;41.330;69.282;2023-08-06T04:19:02;23.60;;;10.85;;
78346;SDS011;67803;41.330;69.282;2023-08-06T04:21:32;28.33;;;11.68;;
78346;SDS011;67803;41.330;69.282;2023-08-06T04:24:03;22.25;;;10.38;;
78346;SDS011;67803;41.330;69.282;2023-08-06T04:26:33;23.67;;;10.88;;
78346;SDS011;67803;41.330;69.282;2023-08-06T04:29:04;27.83;;;12.75;;
78346;SDS011;67803;41.330;69.282;2023-08-06T04:31:34;23.75;;;12.32;;
78346;SDS011;67803;41.330;69.282;2023-08-06T04:34:04;24.13;;;11.45;;
78346;SDS011;67803;41.330;69.282;2023-08-06T04:36:35;27.15;;;12.35;;
78346;SDS011;67803;41.330;69.282;2023-08-06T04:39:05;25.08;;;12.82;;
78346;SDS011;67803;41.330;69.282;2023-08-06T04:41:36;22.63;;;13.00;;
78346;SDS011;67803;41.330;69.282;2023-08-06T04:44:06;21.77;;;11.32;;
78346;SDS011;67803;41.330;69.282;2023-08-06T04:46:36;21.40;;;11.88;;
78346;SDS011;67803;41.330;69.282;2023-08-06T04:49:07;25.52;;;11.02;;
78346;SDS011;67803;41.330;69.282;2023-08-06T04:51:37;22.23;;;12.70;;
78346;SDS011;67803;41.330;69.282;2023-08-06T04:54:08;35.88;;;13.85;;
78346;SDS011;67803;41.330;69.282;2023-08-06T04:56:39;25.23;;;11.95;;
78346;SDS011;67803;41.330;69.282;2023-08-06T04:59:09;32.28;;;12.95;;
78346;SDS011;67803;41.330;69.282;2023-08-06T05:01:40;24.48;;;11.90;;
78346;SDS011;67803;41.330;69.282;2023-08-06T05:04:10;31.90;;;12.35;;
78346;SDS011;67803;41.330;69.282;2023-08-06T05:06:40;25.40;;;12.27;;
78346;SDS011;67803;41.330;69.282;2023-08-06T05:09:11;29.50;;;12.38;;
78346;SDS011;67803;41.330;69.282;2023-08-06T05:11:41;33.75;;;13.63;;
78346;SDS011;67803;41.330;69.282;2023-08-06T05:14:12;26.02;;;12.70;;
78346;SDS011;67803;41.330;69.282;2023-08-06T05:16:42;33.13;;;13.50;;
78346;SDS011;67803;41.330;69.282;2023-08-06T05:19:13;33.40;;;13.00;;
78346;SDS011;67803;41.330;69.282;2023-08-06T05:21:43;29.00;;;12.43;;
78346;SDS011;67803;41.330;69.282;2023-08-06T05:24:13;29.15;;;14.20;;
78346;SDS011;67803;41.330;69.282;2023-08-06T05:26:44;34.13;;;13.07;;
78346;SDS011;67803;41.330;69.282;2023-08-06T05:29:16;43.45;;;12.95;;
78346;SDS011;67803;41.330;69.282;2023-08-06T05:31:47;35.30;;;12.77;;
78346;SDS011;67803;41.330;69.282;2023-08-06T05:34:17;31.70;;;11.52;;
78346;SDS011;67803;41.330;69.282;2023-08-06T05:36:48;31.45;;;12.60;;
78346;SDS011;67803;41.330;69.282;2023-08-06T05:39:18;38.90;;;12.73;;
78346;SDS011;67803;41.330;69.282;2023-08-06T05:41:48;34.67;;;11.35;;
78346;SDS011;67803;41.330;69.282;2023-08-06T05:44:20;35.72;;;13.15;;
78346;SDS011;67803;41.330;69.282;2023-08-06T05:46:51;38.55;;;12.15;;
78346;SDS011;67803;41.330;69.282;2023-08-06T05:49:23;27.38;;;11.10;;
78346;SDS011;67803;41.330;69.282;2023-08-06T05:51:53;28.00;;;11.25;;
78346;SDS011;67803;41.330;69.282;2023-08-06T05:54:24;34.88;;;12.05;;
78346;SDS011;67803;41.330;69.282;2023-08-06T05:56:54;29.70;;;11.18;;
78346;SDS011;67803;41.330;69.282;2023-08-06T05:59:25;27.65;;;10.93;;
78346;SDS011;67803;41.330;69.282;2023-08-06T06:01:55;28.33;;;10.88;;
78346;SDS011;67803;41.330;69.282;2023-08-06T06:04:26;30.15;;;10.68;;
78346;SDS011;67803;41.330;69.282;2023-08-06T06:06:56;26.08;;;11.00;;
78346;SDS011;67803;41.330;69.282;2023-08-06T06:09:26;31.38;;;10.55;;
78346;SDS011;67803;41.330;69.282;2023-08-06T06:11:57;32.97;;;10.75;;
78346;SDS011;67803;41.330;69.282;2023-08-06T06:14:27;25.10;;;11.20;;
78346;SDS011;67803;41.330;69.282;2023-08-06T06:16:58;30.77;;;11.10;;
78346;SDS011;67803;41.330;69.282;2023-08-06T06:19:30;24.98;;;10.02;;
78346;SDS011;67803;41.330;69.282;2023-08-06T06:22:00;27.27;;;10.32;;
78346;SDS011;67803;41.330;69.282;2023-08-06T06:24:30;28.45;;;11.45;;
78346;SDS011;67803;41.330;69.282;2023-08-06T06:27:01;24.65;;;10.05;;
78346;SDS011;67803;41.330;69.282;2023-08-06T06:29:32;22.75;;;13.30;;
78346;SDS011;67803;41.330;69.282;2023-08-06T06:32:03;29.98;;;13.68;;
78346;SDS011;67803;41.330;69.282;2023-08-06T06:34:33;34.42;;;13.73;;
78346;SDS011;67803;41.330;69.282;2023-08-06T06:37:04;30.52;;;12.48;;
78346;SDS011;67803;41.330;69.282;2023-08-06T06:39:34;31.80;;;12.93;;
78346;SDS011;67803;41.330;69.282;2023-08-06T06:42:05;26.33;;;10.70;;
78346;SDS011;67803;41.330;69.282;2023-08-06T06:44:35;23.67;;;10.57;;
78346;SDS011;67803;41.330;69.282;2023-08-06T06:47:06;28.67;;;10.77;;
78346;SDS011;67803;41.330;69.282;2023-08-06T06:49:36;28.25;;;10.88;;
78346;SDS011;67803;41.330;69.282;2023-08-06T06:52:07;29.75;;;11.25;;
78346;SDS011;67803;41.330;69.282;2023-08-06T06:54:37;33.03;;;11.93;;
78346;SDS011;67803;41.330;69.282;2023-08-06T06:57:07;30.42;;;10.65;;
78346;SDS011;67803;41.330;69.282;2023-08-06T06:59:38;30.83;;;10.98;;
78346;SDS011;67803;41.330;69.282;2023-08-06T07:02:08;28.17;;;11.38;;
78346;SDS011;67803;41.330;69.282;2023-08-06T07:04:39;27.70;;;10.43;;
78346;SDS011;67803;41.330;69.282;2023-08-06T07:07:09;24.42;;;11.10;;
78346;SDS011;67803;41.330;69.282;2023-08-06T07:09:40;23.40;;;10.55;;
78346;SDS011;67803;41.330;69.282;2023-08-06T07:12:10;23.25;;;10.77;;
78346;SDS011;67803;41.330;69.282;2023-08-06T07:14:41;23.48;;;9.75;;
78346;SDS011;67803;41.330;69.282;2023-08-06T07:17:11;25.23;;;10.43;;
78346;SDS011;67803;41.330;69.282;2023-08-06T07:19:42;28.30;;;10.65;;
78346;SDS011;67803;41.330;69.282;2023-08-06T07:22:12;20.60;;;9.32;;
78346;SDS011;67803;41.330;69.282;2023-08-06T07:24:42;23.15;;;10.60;;
78346;SDS011;67803;41.330;69.282;2023-08-06T07:27:13;23.25;;;10.10;;
78346;SDS011;67803;41.330;69.282;2023-08-06T07:29:43;22.48;;;9.93;;
78346;SDS011;67803;41.330;69.282;2023-08-06T07:32:14;24.73;;;10.07;;
78346;SDS011;67803;41.330;69.282;2023-08-06T07:34:44;14.50;;;9.60;;
78346;SDS011;67803;41.330;69.282;2023-08-06T07:37:15;22.80;;;10.43;;
78346;SDS011;67803;41.330;69.282;2023-08-06T07:39:45;19.42;;;9.57;;
78346;SDS011;67803;41.330;69.282;2023-08-06T07:42:15;19.67;;;10.07;;
78346;SDS011;67803;41.330;69.282;2023-08-06T07:44:53;25.40;;;11.13;;
78346;SDS011;67803;41.330;69.282;2023-08-06T07:47:24;25.70;;;10.55;;
78346;SDS011;67803;41.330;69.282;2023-08-06T07:49:54;26.00;;;10.63;;
78346;SDS011;67803;41.330;69.282;2023-08-06T07:52:25;22.73;;;10.32;;
78346;SDS011;67803;41.330;69.282;2023-08-06T07:54:55;24.70;;;10.65;;
78346;SDS011;67803;41.330;69.282;2023-08-06T07:57:25;20.20;;;9.90;;
78346;SDS011;67803;41.330;69.282;2023-08-06T07:59:56;23.52;;;10.38;;
78346;SDS011;67803;41.330;69.282;2023-08-06T08:02:27;20.08;;;9.80;;
78346;SDS011;67803;41.330;69.282;2023-08-06T08:04:57;20.30;;;9.65;;
78346;SDS011;67803;41.330;69.282;2023-08-06T08:07:27;19.52;;;9.60;;
78346;SDS011;67803;41.330;69.282;2023-08-06T08:10:00;19.20;;;9.70;;
78346;SDS011;67803;41.330;69.282;2023-08-06T08:12:31;22.20;;;9.98;;
78346;SDS011;67803;41.330;69.282;2023-08-06T08:15:01;15.23;;;9.02;;
78346;SDS011;67803;41.330;69.282;2023-08-06T08:17:33;18.23;;;9.35;;
78346;SDS011;67803;41.330;69.282;2023-08-06T08:20:04;17.40;;;9.75;;
78346;SDS011;67803;41.330;69.282;2023-08-06T08:22:35;26.65;;;9.80;;
78346;SDS011;67803;41.330;69.282;2023-08-06T08:25:06;21.33;;;9.02;;
78346;SDS011;67803;41.330;69.282;2023-08-06T08:27:36;19.20;;;9.50;;
78346;SDS011;67803;41.330;69.282;2023-08-06T08:30:07;17.75;;;9.60;;
78346;SDS011;67803;41.330;69.282;2023-08-06T08:32:37;20.70;;;9.90;;
78346;SDS011;67803;41.330;69.282;2023-08-06T08:35:08;20.45;;;9.50;;
78346;SDS011;67803;41.330;69.282;2023-08-06T08:37:38;20.65;;;9.85;;
78346;SDS011;67803;41.330;69.282;2023-08-06T08:40:09;20.65;;;9.75;;
78346;SDS011;67803;41.330;69.282;2023-08-06T08:42:40;19.83;;;8.77;;
78346;SDS011;67803;41.330;69.282;2023-08-06T08:45:11;21.45;;;8.48;;
78346;SDS011;67803;41.330;69.282;2023-08-06T08:47:43;18.42;;;8.52;;
78346;SDS011;67803;41.330;69.282;2023-08-06T08:50:13;21.10;;;9.45;;
78346;SDS011;67803;41.330;69.282;2023-08-06T08:52:47;21.48;;;10.45;;
78346;SDS011;67803;41.330;69.282;2023-08-06T08:55:19;20.38;;;9.68;;
78346;SDS011;67803;41.330;69.282;2023-08-06T08:57:51;23.92;;;9.30;;
78346;SDS011;67803;41.330;69.282;2023-08-06T09:00:21;18.63;;;9.32;;
78346;SDS011;67803;41.330;69.282;2023-08-06T09:02:52;21.98;;;9.00;;
78346;SDS011;67803;41.330;69.282;2023-08-06T09:05:23;24.25;;;9.40;;
78346;SDS011;67803;41.330;69.282;2023-08-06T09:07:54;28.80;;;8.95;;
78346;SDS011;67803;41.330;69.282;2023-08-06T09:10:25;19.77;;;9.02;;
78346;SDS011;67803;41.330;69.282;2023-08-06T09:12:56;29.17;;;9.85;;
78346;SDS011;67803;41.330;69.282;2023-08-06T09:15:26;27.55;;;10.27;;
78346;SDS011;67803;41.330;69.282;2023-08-06T09:17:57;26.70;;;11.55;;
78346;SDS011;67803;41.330;69.282;2023-08-06T09:20:27;25.02;;;11.15;;
78346;SDS011;67803;41.330;69.282;2023-08-06T09:22:58;23.90;;;10.02;;
78346;SDS011;67803;41.330;69.282;2023-08-06T09:25:28;19.17;;;10.20;;
78346;SDS011;67803;41.330;69.282;2023-08-06T09:28:01;24.20;;;11.32;;
78346;SDS011;67803;41.330;69.282;2023-08-06T09:30:35;23.95;;;12.02;;
78346;SDS011;67803;41.330;69.282;2023-08-06T09:33:08;28.05;;;11.68;;
78346;SDS011;67803;41.330;69.282;2023-08-06T09:35:45;30.23;;;11.43;;
78346;SDS011;67803;41.330;69.282;2023-08-06T09:38:16;29.48;;;14.02;;
78346;SDS011;67803;41.330;69.282;2023-08-06T09:40:46;33.35;;;16.75;;
78346;SDS011;67803;41.330;69.282;2023-08-06T09:43:18;35.58;;;14.40;;
78346;SDS011;67803;41.330;69.282;2023-08-06T09:45:49;30.35;;;14.88;;
78346;SDS011;67803;41.330;69.282;2023-08-06T09:48:19;28.23;;;13.13;;
78346;SDS011;67803;41.330;69.282;2023-08-06T09:50:54;29.92;;;10.48;;
78346;SDS011;67803;41.330;69.282;2023-08-06T09:53:25;19.05;;;10.52;;
78346;SDS011;67803;41.330;69.282;2023-08-06T09:55:56;22.77;;;11.75;;
78346;SDS011;67803;41.330;69.282;2023-08-06T09:58:27;25.20;;;11.48;;
78346;SDS011;67803;41.330;69.282;2023-08-06T10:00:58;21.67;;;9.77;;
78346;SDS011;67803;41.330;69.282;2023-08-06T10:03:28;22.25;;;9.77;;
78346;SDS011;67803;41.330;69.282;2023-08-06T10:05:59;16.05;;;8.52;;
78346;SDS011;67803;41.330;69.282;2023-08-06T10:08:32;15.48;;;7.80;;
78346;SDS011;67803;41.330;69.282;2023-08-06T10:11:03;14.27;;;6.47;;
78346;SDS011;67803;41.330;69.282;2023-08-06T10:13:36;11.52;;;5.97;;
78346;SDS011;67803;41.330;69.282;2023-08-06T10:16:07;12.80;;;6.57;;
78346;SDS011;67803;41.330;69.282;2023-08-06T10:18:37;13.00;;;5.70;;
78346;SDS011;67803;41.330;69.282;2023-08-06T10:21:08;13.55;;;5.93;;
78346;SDS011;67803;41.330;69.282;2023-08-06T10:23:40;11.82;;;5.10;;
78346;SDS011;67803;41.330;69.282;2023-08-06T10:26:10;11.25;;;6.00;;
78346;SDS011;67803;41.330;69.282;2023-08-06T10:28:41;14.50;;;6.50;;
78346;SDS011;67803;41.330;69.282;2023-08-06T10:31:11;12.85;;;5.82;;
78346;SDS011;67803;41.330;69.282;2023-08-06T10:33:43;12.60;;;5.13;;
78346;SDS011;67803;41.330;69.282;2023-08-06T10:36:14;7.47;;;4.47;;
78346;SDS011;67803;41.330;69.282;2023-08-06T10:38:45;9.60;;;4.40;;
78346;SDS011;67803;41.330;69.282;2023-08-06T10:41:21;9.10;;;4.50;;
78346;SDS011;67803;41.330;69.282;2023-08-06T10:43:53;7.75;;;4.18;;
78346;SDS011;67803;41.330;69.282;2023-08-06T10:46:35;9.95;;;3.85;;
78346;SDS011;67803;41.330;69.282;2023-08-06T10:49:06;12.77;;;3.92;;
78346;SDS011;67803;41.330;69.282;2023-08-06T10:51:37;6.03;;;3.72;;
78346;SDS011;67803;41.330;69.282;2023-08-06T10:54:08;6.88;;;3.28;;
78346;SDS011;67803;41.330;69.282;2023-08-06T10:56:41;7.82;;;3.55;;
78346;SDS011;67803;41.330;69.282;2023-08-06T10:59:14;8.43;;;3.58;;
78346;SDS011;67803;41.330;69.282;2023-08-06T11:01:45;7.13;;;3.50;;
78346;SDS011;67803;41.330;69.282;2023-08-06T11:04:16;6.78;;;3.78;;
78346;SDS011;67803;41.330;69.282;2023-08-06T11:06:51;7.88;;;3.50;;
78346;SDS011;67803;41.330;69.282;2023-08-06T11:09:23;5.93;;;3.58;;
78346;SDS011;67803;41.330;69.282;2023-08-06T11:11:53;9.10;;;3.75;;
78346;SDS011;67803;41.330;69.282;2023-08-06T11:14:24;5.85;;;3.42;;
78346;SDS011;67803;41.330;69.282;2023-08-06T11:16:54;9.35;;;4.15;;
78346;SDS011;67803;41.330;69.282;2023-08-06T11:19:24;8.40;;;3.95;;
78346;SDS011;67803;41.330;69.282;2023-08-06T11:21:55;9.43;;;3.60;;
78346;SDS011;67803;41.330;69.282;2023-08-06T11:24:26;8.43;;;3.75;;
78346;SDS011;67803;41.330;69.282;2023-08-06T11:26:56;6.13;;;3.40;;
78346;SDS011;67803;41.330;69.282;2023-08-06T11:29:27;8.63;;;3.80;;
78346;SDS011;67803;41.330;69.282;2023-08-06T11:32:04;7.18;;;3.65;;
78346;SDS011;67803;41.330;69.282;2023-08-06T11:34:35;12.75;;;3.60;;
78346;SDS011;67803;41.330;69.282;2023-08-06T11:37:06;7.03;;;3.53;;
78346;SDS011;67803;41.330;69.282;2023-08-06T11:39:37;5.18;;;3.25;;
78346;SDS011;67803;41.330;69.282;2023-08-06T11:42:07;7.13;;;3.38;;
78346;SDS011;67803;41.330;69.282;2023-08-06T11:44:38;7.65;;;3.50;;
78346;SDS011;67803;41.330;69.282;2023-08-06T11:47:11;6.22;;;3.40;;
78346;SDS011;67803;41.330;69.282;2023-08-06T11:49:42;9.52;;;4.57;;
78346;SDS011;67803;41.330;69.282;2023-08-06T11:55:05;10.57;;;5.35;;
78346;SDS011;67803;41.330;69.282;2023-08-06T11:57:43;12.38;;;4.63;;
78346;SDS011;67803;41.330;69.282;2023-08-06T12:00:14;14.75;;;5.05;;
78346;SDS011;67803;41.330;69.282;2023-08-06T12:02:45;15.13;;;5.07;;
78346;SDS011;67803;41.330;69.282;2023-08-06T12:05:16;14.70;;;4.97;;
78346;SDS011;67803;41.330;69.282;2023-08-06T12:07:49;13.80;;;5.72;;
78346;SDS011;67803;41.330;69.282;2023-08-06T12:10:20;15.38;;;5.35;;
78346;SDS011;67803;41.330;69.282;2023-08-06T12:12:50;17.08;;;5.45;;
78346;SDS011;67803;41.330;69.282;2023-08-06T12:15:21;13.50;;;5.07;;
78346;SDS011;67803;41.330;69.282;2023-08-06T12:17:52;17.88;;;5.72;;
78346;SDS011;67803;41.330;69.282;2023-08-06T12:20:22;14.10;;;5.72;;
78346;SDS011;67803;41.330;69.282;2023-08-06T12:22:53;16.55;;;5.72;;
78346;SDS011;67803;41.330;69.282;2023-08-06T12:25:23;14.55;;;6.10;;
78346;SDS011;67803;41.330;69.282;2023-08-06T12:27:54;20.40;;;6.53;;
78346;SDS011;67803;41.330;69.282;2023-08-06T12:30:24;16.85;;;5.97;;
78346;SDS011;67803;41.330;69.282;2023-08-06T12:32:55;16.48;;;5.55;;
78346;SDS011;67803;41.330;69.282;2023-08-06T12:35:25;11.65;;;5.43;;
78346;SDS011;67803;41.330;69.282;2023-08-06T12:37:56;14.80;;;6.47;;
78346;SDS011;67803;41.330;69.282;2023-08-06T12:40:27;17.90;;;6.07;;
78346;SDS011;67803;41.330;69.282;2023-08-06T12:42:57;19.98;;;7.60;;
78346;SDS011;67803;41.330;69.282;2023-08-06T12:45:29;22.45;;;6.50;;
78346;SDS011;67803;41.330;69.282;2023-08-06T12:47:59;18.95;;;7.45;;
78346;SDS011;67803;41.330;69.282;2023-08-06T12:50:30;21.05;;;6.95;;
78346;SDS011;67803;41.330;69.282;2023-08-06T12:53:02;19.13;;;6.50;;
78346;SDS011;67803;41.330;69.282;2023-08-06T12:55:34;14.10;;;5.70;;
78346;SDS011;67803;41.330;69.282;2023-08-06T12:58:05;12.27;;;6.20;;
78346;SDS011;67803;41.330;69.282;2023-08-06T13:00:35;16.20;;;6.55;;
78346;SDS011;67803;41.330;69.282;2023-08-06T13:03:06;16.33;;;6.82;;
78346;SDS011;67803;41.330;69.282;2023-08-06T13:05:37;15.95;;;6.20;;
78346;SDS011;67803;41.330;69.282;2023-08-06T13:08:07;14.75;;;6.55;;
78346;SDS011;67803;41.330;69.282;2023-08-06T13:10:38;13.88;;;6.80;;
78346;SDS011;67803;41.330;69.282;2023-08-06T13:13:08;19.92;;;7.15;;
78346;SDS011;67803;41.330;69.282;2023-08-06T13:15:40;16.75;;;6.75;;
78346;SDS011;67803;41.330;69.282;2023-08-06T13:18:10;16.65;;;5.72;;
78346;SDS011;67803;41.330;69.282;2023-08-06T13:20:41;13.50;;;5.60;;
78346;SDS011;67803;41.330;69.282;2023-08-06T13:23:11;13.50;;;5.15;;
78346;SDS011;67803;41.330;69.282;2023-08-06T13:25:43;12.77;;;5.65;;
78346;SDS011;67803;41.330;69.282;2023-08-06T13:28:13;13.68;;;4.85;;
78346;SDS011;67803;41.330;69.282;2023-08-06T13:30:44;12.25;;;4.55;;
78346;SDS011;67803;41.330;69.282;2023-08-06T13:33:14;13.05;;;4.53;;
78346;SDS011;67803;41.330;69.282;2023-08-06T13:35:45;13.65;;;4.45;;
78346;SDS011;67803;41.330;69.282;2023-08-06T13:38:15;8.20;;;4.75;;
78346;SDS011;67803;41.330;69.282;2023-08-06T13:40:46;15.35;;;5.05;;
78346;SDS011;67803;41.330;69.282;2023-08-06T13:43:16;14.32;;;5.32;;
78346;SDS011;67803;41.330;69.282;2023-08-06T13:45:49;14.70;;;4.82;;
78346;SDS011;67803;41.330;69.282;2023-08-06T13:48:19;15.45;;;5.45;;
78346;SDS011;67803;41.330;69.282;2023-08-06T13:50:50;15.02;;;5.75;;
78346;SDS011;67803;41.330;69.282;2023-08-06T13:53:20;12.95;;;5.90;;
78346;SDS011;67803;41.330;69.282;2023-08-06T13:55:51;13.90;;;5.93;;
78346;SDS011;67803;41.330;69.282;2023-08-06T13:58:21;16.20;;;5.32;;
78346;SDS011;67803;41.330;69.282;2023-08-06T14:00:52;11.15;;;5.50;;
78346;SDS011;67803;41.330;69.282;2023-08-06T14:03:24;15.00;;;6.03;;
78346;SDS011;67803;41.330;69.282;2023-08-06T14:05:54;11.20;;;4.38;;
78346;SDS011;67803;41.330;69.282;2023-08-06T14:08:28;12.63;;;5.13;;
78346;SDS011;67803;41.330;69.282;2023-08-06T14:10:58;11.45;;;5.00;;
78346;SDS011;67803;41.330;69.282;2023-08-06T14:13:29;10.20;;;5.60;;
78346;SDS011;67803;41.330;69.282;2023-08-06T14:15:59;14.13;;;6.10;;
78346;SDS011;67803;41.330;69.282;2023-08-06T14:18:30;13.35;;;6.28;;
78346;SDS011;67803;41.330;69.282;2023-08-06T14:21:00;11.90;;;6.63;;
78346;SDS011;67803;41.330;69.282;2023-08-06T14:23:30;15.68;;;6.25;;
78346;SDS011;67803;41.330;69.282;2023-08-06T14:26:01;11.73;;;5.90;;
78346;SDS011;67803;41.330;69.282;2023-08-06T14:28:31;14.75;;;5.93;;
78346;SDS011;67803;41.330;69.282;2023-08-06T14:31:02;13.68;;;5.95;;
78346;SDS011;67803;41.330;69.282;2023-08-06T14:33:32;16.30;;;6.68;;
78346;SDS011;67803;41.330;69.282;2023-08-06T14:36:03;14.98;;;6.25;;
78346;SDS011;67803;41.330;69.282;2023-08-06T14:38:33;13.00;;;6.65;;
78346;SDS011;67803;41.330;69.282;2023-08-06T14:41:04;18.20;;;8.25;;
78346;SDS011;67803;41.330;69.282;2023-08-06T14:43:34;15.18;;;7.32;;
78346;SDS011;67803;41.330;69.282;2023-08-06T14:46:04;19.73;;;9.05;;
78346;SDS011;67803;41.330;69.282;2023-08-06T14:48:35;21.08;;;8.27;;
78346;SDS011;67803;41.330;69.282;2023-08-06T14:51:05;16.95;;;7.72;;
78346;SDS011;67803;41.330;69.282;2023-08-06T14:53:36;18.17;;;7.75;;